Adams Cove, New York
Current Conditions -  °F | °C
As of 3:56 AM on Wednesday 22 Oct 2014 (Local Time) from KART Reporting Station
Overcast Overcast  
Wind Chill: 39°   Ceiling: 1600
Heat Index: 46°   Visibility: 10mi
Dew Point: 37°   Wind: 16mph
Humidity: 71%   Direction: 40°NE
Pressure: 30.11"   Gusts: NA
Location:  44.0116°N, 76.0789°W
Report Text: KART 220756Z AUTO 04014KT 10SM OVC016 08/03 A3011 RMK AO2 SLP196 T00780028
Loading
Personal Weather Stations






























Interactive Weather Map
Tropical Storm Tracking
New forecast layout! Learn more

10-Day Weather Forecast

Advertisements
Track Severe Weather on mobile